sensor_id;sensor_type;location;lat;lon;timestamp;P1;durP1;ratioP1;P2;durP2;ratioP2
53062;SDS011;40529;52.172;10.548;2022-09-12T00:02:23;15.00;;;10.70;;
53062;SDS011;40529;52.172;10.548;2022-09-12T00:04:50;16.42;;;11.15;;
53062;SDS011;40529;52.172;10.548;2022-09-12T00:07:16;17.50;;;11.40;;
53062;SDS011;40529;52.172;10.548;2022-09-12T00:09:42;15.55;;;10.90;;
53062;SDS011;40529;52.172;10.548;2022-09-12T00:12:08;16.13;;;11.02;;
53062;SDS011;40529;52.172;10.548;2022-09-12T00:14:34;13.95;;;10.15;;
53062;SDS011;40529;52.172;10.548;2022-09-12T00:17:00;18.17;;;11.43;;
53062;SDS011;40529;52.172;10.548;2022-09-12T00:19:27;15.82;;;11.82;;
53062;SDS011;40529;52.172;10.548;2022-09-12T00:21:53;15.93;;;11.30;;
53062;SDS011;40529;52.172;10.548;2022-09-12T00:24:19;16.13;;;11.45;;
53062;SDS011;40529;52.172;10.548;2022-09-12T00:26:45;16.33;;;10.93;;
53062;SDS011;40529;52.172;10.548;2022-09-12T00:29:15;14.60;;;10.02;;
53062;SDS011;40529;52.172;10.548;2022-09-12T00:31:41;15.95;;;10.60;;
53062;SDS011;40529;52.172;10.548;2022-09-12T00:34:08;16.67;;;10.25;;
53062;SDS011;40529;52.172;10.548;2022-09-12T00:36:34;17.90;;;11.20;;
53062;SDS011;40529;52.172;10.548;2022-09-12T00:39:00;15.63;;;10.57;;
53062;SDS011;40529;52.172;10.548;2022-09-12T00:41:30;14.73;;;10.45;;
53062;SDS011;40529;52.172;10.548;2022-09-12T00:43:57;10.90;;;7.90;;
53062;SDS011;40529;52.172;10.548;2022-09-12T00:46:31;16.73;;;11.77;;
53062;SDS011;40529;52.172;10.548;2022-09-12T00:49:11;16.08;;;11.20;;
53062;SDS011;40529;52.172;10.548;2022-09-12T00:51:38;16.92;;;11.85;;
53062;SDS011;40529;52.172;10.548;2022-09-12T00:54:10;15.88;;;10.80;;
53062;SDS011;40529;52.172;10.548;2022-09-12T00:56:37;15.10;;;11.25;;
53062;SDS011;40529;52.172;10.548;2022-09-12T00:59:12;17.50;;;12.63;;
53062;SDS011;40529;52.172;10.548;2022-09-12T01:01:40;19.83;;;12.82;;
53062;SDS011;40529;52.172;10.548;2022-09-12T01:04:07;18.27;;;12.13;;
53062;SDS011;40529;52.172;10.548;2022-09-12T01:06:35;17.50;;;12.15;;
53062;SDS011;40529;52.172;10.548;2022-09-12T01:09:02;20.95;;;12.43;;
53062;SDS011;40529;52.172;10.548;2022-09-12T01:11:29;19.15;;;12.45;;
53062;SDS011;40529;52.172;10.548;2022-09-12T01:13:56;18.92;;;12.23;;
53062;SDS011;40529;52.172;10.548;2022-09-12T01:16:22;16.73;;;12.15;;
53062;SDS011;40529;52.172;10.548;2022-09-12T01:21:44;19.92;;;12.07;;
53062;SDS011;40529;52.172;10.548;2022-09-12T01:27:16;21.55;;;12.80;;
53062;SDS011;40529;52.172;10.548;2022-09-12T01:30:04;18.20;;;12.43;;
53062;SDS011;40529;52.172;10.548;2022-09-12T01:42:53;17.25;;;12.25;;
53062;SDS011;40529;52.172;10.548;2022-09-12T01:45:26;19.02;;;13.05;;
53062;SDS011;40529;52.172;10.548;2022-09-12T01:47:55;21.88;;;14.13;;
53062;SDS011;40529;52.172;10.548;2022-09-12T01:50:25;19.35;;;12.82;;
53062;SDS011;40529;52.172;10.548;2022-09-12T01:52:57;21.20;;;13.80;;
53062;SDS011;40529;52.172;10.548;2022-09-12T01:55:26;25.98;;;14.07;;
53062;SDS011;40529;52.172;10.548;2022-09-12T01:58:04;22.35;;;13.77;;
53062;SDS011;40529;52.172;10.548;2022-09-12T02:00:31;20.25;;;13.65;;
53062;SDS011;40529;52.172;10.548;2022-09-12T02:03:00;19.27;;;13.48;;
53062;SDS011;40529;52.172;10.548;2022-09-12T02:08:01;19.65;;;13.50;;
53062;SDS011;40529;52.172;10.548;2022-09-12T02:10:31;19.38;;;13.02;;
53062;SDS011;40529;52.172;10.548;2022-09-12T02:13:00;21.77;;;13.25;;
53062;SDS011;40529;52.172;10.548;2022-09-12T02:15:39;19.63;;;12.90;;
53062;SDS011;40529;52.172;10.548;2022-09-12T02:18:05;19.55;;;13.55;;
53062;SDS011;40529;52.172;10.548;2022-09-12T02:20:33;20.33;;;12.90;;
53062;SDS011;40529;52.172;10.548;2022-09-12T02:22:59;19.42;;;13.95;;
53062;SDS011;40529;52.172;10.548;2022-09-12T02:25:25;20.98;;;14.40;;
53062;SDS011;40529;52.172;10.548;2022-09-12T02:27:54;21.80;;;14.48;;
53062;SDS011;40529;52.172;10.548;2022-09-12T02:30:22;22.70;;;13.05;;
53062;SDS011;40529;52.172;10.548;2022-09-12T02:32:59;19.33;;;14.18;;
53062;SDS011;40529;52.172;10.548;2022-09-12T02:40:21;20.97;;;12.90;;
53062;SDS011;40529;52.172;10.548;2022-09-12T02:42:47;22.05;;;14.63;;
53062;SDS011;40529;52.172;10.548;2022-09-12T02:45:14;20.77;;;13.93;;
53062;SDS011;40529;52.172;10.548;2022-09-12T02:47:41;22.02;;;14.35;;
53062;SDS011;40529;52.172;10.548;2022-09-12T02:50:08;18.20;;;12.93;;
53062;SDS011;40529;52.172;10.548;2022-09-12T02:52:34;19.55;;;13.77;;
53062;SDS011;40529;52.172;10.548;2022-09-12T02:55:01;22.02;;;14.48;;
53062;SDS011;40529;52.172;10.548;2022-09-12T02:57:29;25.23;;;15.13;;
53062;SDS011;40529;52.172;10.548;2022-09-12T02:59:56;24.48;;;15.60;;
53062;SDS011;40529;52.172;10.548;2022-09-12T03:15:08;18.70;;;12.55;;
53062;SDS011;40529;52.172;10.548;2022-09-12T03:17:47;18.98;;;13.52;;
53062;SDS011;40529;52.172;10.548;2022-09-12T03:22:48;17.35;;;12.65;;
53062;SDS011;40529;52.172;10.548;2022-09-12T03:27:55;18.95;;;12.80;;
53062;SDS011;40529;52.172;10.548;2022-09-12T03:30:23;18.77;;;11.80;;
53062;SDS011;40529;52.172;10.548;2022-09-12T03:32:50;20.17;;;13.27;;
53062;SDS011;40529;52.172;10.548;2022-09-12T03:35:17;19.02;;;12.98;;
53062;SDS011;40529;52.172;10.548;2022-09-12T03:37:44;22.60;;;12.73;;
53062;SDS011;40529;52.172;10.548;2022-09-12T03:40:10;19.70;;;12.88;;
53062;SDS011;40529;52.172;10.548;2022-09-12T03:42:37;18.45;;;12.45;;
53062;SDS011;40529;52.172;10.548;2022-09-12T03:45:04;17.80;;;12.82;;
53062;SDS011;40529;52.172;10.548;2022-09-12T03:47:30;22.40;;;13.05;;
53062;SDS011;40529;52.172;10.548;2022-09-12T03:49:56;18.85;;;12.98;;
53062;SDS011;40529;52.172;10.548;2022-09-12T03:52:22;18.08;;;12.32;;
53062;SDS011;40529;52.172;10.548;2022-09-12T03:54:48;20.20;;;12.95;;
53062;SDS011;40529;52.172;10.548;2022-09-12T03:57:14;17.40;;;12.77;;
53062;SDS011;40529;52.172;10.548;2022-09-12T03:59:40;18.75;;;12.05;;
53062;SDS011;40529;52.172;10.548;2022-09-12T04:02:06;17.95;;;12.60;;
53062;SDS011;40529;52.172;10.548;2022-09-12T04:04:35;17.55;;;11.98;;
53062;SDS011;40529;52.172;10.548;2022-09-12T04:07:01;17.60;;;13.23;;
53062;SDS011;40529;52.172;10.548;2022-09-12T04:09:27;18.88;;;12.98;;
53062;SDS011;40529;52.172;10.548;2022-09-12T04:11:53;20.73;;;13.27;;
53062;SDS011;40529;52.172;10.548;2022-09-12T04:14:19;20.25;;;13.00;;
53062;SDS011;40529;52.172;10.548;2022-09-12T04:16:45;18.35;;;12.10;;
53062;SDS011;40529;52.172;10.548;2022-09-12T04:19:11;18.40;;;12.68;;
53062;SDS011;40529;52.172;10.548;2022-09-12T04:21:38;19.42;;;13.00;;
53062;SDS011;40529;52.172;10.548;2022-09-12T04:24:04;21.65;;;13.25;;
53062;SDS011;40529;52.172;10.548;2022-09-12T04:26:30;18.75;;;13.13;;
53062;SDS011;40529;52.172;10.548;2022-09-12T04:28:56;19.15;;;13.73;;
53062;SDS011;40529;52.172;10.548;2022-09-12T04:31:23;22.90;;;15.65;;
53062;SDS011;40529;52.172;10.548;2022-09-12T04:33:56;25.90;;;18.15;;
53062;SDS011;40529;52.172;10.548;2022-09-12T04:36:22;23.88;;;16.15;;
53062;SDS011;40529;52.172;10.548;2022-09-12T04:38:49;26.52;;;16.30;;
53062;SDS011;40529;52.172;10.548;2022-09-12T04:41:19;25.48;;;16.80;;
53062;SDS011;40529;52.172;10.548;2022-09-12T04:43:46;24.38;;;16.23;;
53062;SDS011;40529;52.172;10.548;2022-09-12T04:46:14;24.38;;;16.40;;
53062;SDS011;40529;52.172;10.548;2022-09-12T04:48:41;26.35;;;16.67;;
53062;SDS011;40529;52.172;10.548;2022-09-12T04:51:21;23.05;;;15.98;;
53062;SDS011;40529;52.172;10.548;2022-09-12T04:53:52;22.75;;;15.20;;
53062;SDS011;40529;52.172;10.548;2022-09-12T04:56:19;23.27;;;15.30;;
53062;SDS011;40529;52.172;10.548;2022-09-12T04:58:45;22.48;;;15.50;;
53062;SDS011;40529;52.172;10.548;2022-09-12T05:01:13;25.85;;;15.20;;
53062;SDS011;40529;52.172;10.548;2022-09-12T05:03:39;23.17;;;14.65;;
53062;SDS011;40529;52.172;10.548;2022-09-12T05:06:08;22.27;;;14.50;;
53062;SDS011;40529;52.172;10.548;2022-09-12T05:08:34;21.00;;;14.88;;
53062;SDS011;40529;52.172;10.548;2022-09-12T05:11:05;24.10;;;15.90;;
53062;SDS011;40529;52.172;10.548;2022-09-12T05:13:31;23.38;;;15.50;;
53062;SDS011;40529;52.172;10.548;2022-09-12T05:15:58;24.38;;;16.45;;
53062;SDS011;40529;52.172;10.548;2022-09-12T05:18:25;25.58;;;16.88;;
53062;SDS011;40529;52.172;10.548;2022-09-12T05:20:52;26.67;;;17.75;;
53062;SDS011;40529;52.172;10.548;2022-09-12T05:23:18;26.15;;;17.27;;
53062;SDS011;40529;52.172;10.548;2022-09-12T05:25:51;26.85;;;17.67;;
53062;SDS011;40529;52.172;10.548;2022-09-12T05:28:20;26.27;;;16.90;;
53062;SDS011;40529;52.172;10.548;2022-09-12T05:30:47;28.15;;;17.20;;
53062;SDS011;40529;52.172;10.548;2022-09-12T05:33:13;29.77;;;17.20;;
53062;SDS011;40529;52.172;10.548;2022-09-12T05:35:39;26.45;;;16.60;;
53062;SDS011;40529;52.172;10.548;2022-09-12T05:38:06;26.88;;;17.80;;
53062;SDS011;40529;52.172;10.548;2022-09-12T05:40:32;29.00;;;17.85;;
53062;SDS011;40529;52.172;10.548;2022-09-12T05:42:59;27.88;;;19.38;;
53062;SDS011;40529;52.172;10.548;2022-09-12T05:45:25;28.70;;;18.88;;
53062;SDS011;40529;52.172;10.548;2022-09-12T05:47:52;29.95;;;18.70;;
53062;SDS011;40529;52.172;10.548;2022-09-12T05:50:21;26.95;;;17.55;;
53062;SDS011;40529;52.172;10.548;2022-09-12T05:52:47;26.67;;;16.50;;
53062;SDS011;40529;52.172;10.548;2022-09-12T05:55:13;22.65;;;16.42;;
53062;SDS011;40529;52.172;10.548;2022-09-12T05:57:42;25.50;;;17.55;;
53062;SDS011;40529;52.172;10.548;2022-09-12T06:00:10;24.38;;;16.17;;
53062;SDS011;40529;52.172;10.548;2022-09-12T06:02:36;24.63;;;17.25;;
53062;SDS011;40529;52.172;10.548;2022-09-12T06:05:02;23.88;;;15.93;;
53062;SDS011;40529;52.172;10.548;2022-09-12T06:07:28;24.85;;;17.15;;
53062;SDS011;40529;52.172;10.548;2022-09-12T06:09:57;24.98;;;16.73;;
53062;SDS011;40529;52.172;10.548;2022-09-12T06:12:24;25.23;;;15.98;;
53062;SDS011;40529;52.172;10.548;2022-09-12T06:14:51;25.02;;;17.08;;
53062;SDS011;40529;52.172;10.548;2022-09-12T06:17:18;25.83;;;17.70;;
53062;SDS011;40529;52.172;10.548;2022-09-12T06:19:44;23.40;;;16.00;;
53062;SDS011;40529;52.172;10.548;2022-09-12T06:22:10;25.95;;;17.33;;
53062;SDS011;40529;52.172;10.548;2022-09-12T06:24:36;25.63;;;17.05;;
53062;SDS011;40529;52.172;10.548;2022-09-12T06:27:02;25.13;;;17.13;;
53062;SDS011;40529;52.172;10.548;2022-09-12T06:29:28;25.70;;;17.85;;
53062;SDS011;40529;52.172;10.548;2022-09-12T06:31:56;25.65;;;17.38;;
53062;SDS011;40529;52.172;10.548;2022-09-12T06:34:22;27.55;;;18.65;;
53062;SDS011;40529;52.172;10.548;2022-09-12T06:36:50;24.20;;;17.40;;
53062;SDS011;40529;52.172;10.548;2022-09-12T06:39:17;26.08;;;17.52;;
53062;SDS011;40529;52.172;10.548;2022-09-12T06:41:44;28.38;;;17.70;;
53062;SDS011;40529;52.172;10.548;2022-09-12T06:44:14;25.50;;;17.67;;
53062;SDS011;40529;52.172;10.548;2022-09-12T06:46:41;25.38;;;17.50;;
53062;SDS011;40529;52.172;10.548;2022-09-12T06:49:07;23.65;;;16.92;;
53062;SDS011;40529;52.172;10.548;2022-09-12T06:51:33;27.05;;;18.45;;
53062;SDS011;40529;52.172;10.548;2022-09-12T06:54:02;27.00;;;18.48;;
53062;SDS011;40529;52.172;10.548;2022-09-12T06:56:29;25.63;;;17.05;;
53062;SDS011;40529;52.172;10.548;2022-09-12T06:58:56;25.77;;;18.17;;
53062;SDS011;40529;52.172;10.548;2022-09-12T07:01:26;23.02;;;16.98;;
53062;SDS011;40529;52.172;10.548;2022-09-12T07:03:54;23.50;;;16.25;;
53062;SDS011;40529;52.172;10.548;2022-09-12T07:06:22;24.90;;;16.75;;
53062;SDS011;40529;52.172;10.548;2022-09-12T07:08:48;22.25;;;15.57;;
53062;SDS011;40529;52.172;10.548;2022-09-12T07:11:15;20.40;;;15.20;;
53062;SDS011;40529;52.172;10.548;2022-09-12T07:13:42;19.67;;;13.80;;
53062;SDS011;40529;52.172;10.548;2022-09-12T07:16:08;17.38;;;13.93;;
53062;SDS011;40529;52.172;10.548;2022-09-12T07:18:35;16.30;;;12.77;;
53062;SDS011;40529;52.172;10.548;2022-09-12T07:21:02;16.10;;;12.77;;
53062;SDS011;40529;52.172;10.548;2022-09-12T07:23:29;19.15;;;13.00;;
53062;SDS011;40529;52.172;10.548;2022-09-12T07:25:56;14.57;;;11.88;;
53062;SDS011;40529;52.172;10.548;2022-09-12T07:28:22;15.98;;;12.05;;
53062;SDS011;40529;52.172;10.548;2022-09-12T07:30:49;14.07;;;11.68;;
53062;SDS011;40529;52.172;10.548;2022-09-12T07:33:15;13.80;;;11.50;;
53062;SDS011;40529;52.172;10.548;2022-09-12T07:35:41;14.10;;;11.48;;
53062;SDS011;40529;52.172;10.548;2022-09-12T07:38:07;16.05;;;11.95;;
53062;SDS011;40529;52.172;10.548;2022-09-12T07:40:33;17.75;;;11.90;;
53062;SDS011;40529;52.172;10.548;2022-09-12T07:42:59;15.27;;;10.77;;
53062;SDS011;40529;52.172;10.548;2022-09-12T07:45:25;13.57;;;10.20;;
53062;SDS011;40529;52.172;10.548;2022-09-12T07:47:54;13.98;;;10.75;;
53062;SDS011;40529;52.172;10.548;2022-09-12T07:50:20;17.83;;;11.83;;
53062;SDS011;40529;52.172;10.548;2022-09-12T07:52:46;16.13;;;10.30;;
53062;SDS011;40529;52.172;10.548;2022-09-12T07:55:13;11.60;;;10.18;;
53062;SDS011;40529;52.172;10.548;2022-09-12T07:57:39;12.68;;;9.55;;
53062;SDS011;40529;52.172;10.548;2022-09-12T08:00:05;13.30;;;9.57;;
53062;SDS011;40529;52.172;10.548;2022-09-12T08:02:34;11.45;;;8.27;;
53062;SDS011;40529;52.172;10.548;2022-09-12T08:05:01;9.65;;;8.07;;
53062;SDS011;40529;52.172;10.548;2022-09-12T08:07:27;12.40;;;8.68;;
53062;SDS011;40529;52.172;10.548;2022-09-12T08:09:53;11.50;;;8.13;;
53062;SDS011;40529;52.172;10.548;2022-09-12T08:12:19;12.65;;;9.05;;
53062;SDS011;40529;52.172;10.548;2022-09-12T08:14:45;10.43;;;8.95;;
53062;SDS011;40529;52.172;10.548;2022-09-12T08:17:12;10.90;;;8.68;;
53062;SDS011;40529;52.172;10.548;2022-09-12T08:19:38;13.32;;;8.73;;
53062;SDS011;40529;52.172;10.548;2022-09-12T08:22:04;14.23;;;9.35;;
53062;SDS011;40529;52.172;10.548;2022-09-12T08:24:30;13.13;;;8.57;;
53062;SDS011;40529;52.172;10.548;2022-09-12T08:26:56;11.50;;;7.72;;
53062;SDS011;40529;52.172;10.548;2022-09-12T08:29:22;10.93;;;8.25;;
53062;SDS011;40529;52.172;10.548;2022-09-12T08:31:48;11.23;;;8.40;;
53062;SDS011;40529;52.172;10.548;2022-09-12T08:34:14;9.95;;;7.60;;
53062;SDS011;40529;52.172;10.548;2022-09-12T08:36:42;12.00;;;8.32;;
53062;SDS011;40529;52.172;10.548;2022-09-12T08:39:10;14.15;;;7.90;;
53062;SDS011;40529;52.172;10.548;2022-09-12T08:48:58;9.15;;;6.07;;
53062;SDS011;40529;52.172;10.548;2022-09-12T08:51:25;11.57;;;7.80;;
53062;SDS011;40529;52.172;10.548;2022-09-12T08:53:52;11.65;;;8.13;;
53062;SDS011;40529;52.172;10.548;2022-09-12T08:56:20;8.88;;;6.93;;
53062;SDS011;40529;52.172;10.548;2022-09-12T08:58:46;9.98;;;7.35;;
53062;SDS011;40529;52.172;10.548;2022-09-12T09:08:53;9.38;;;6.72;;
53062;SDS011;40529;52.172;10.548;2022-09-12T09:11:31;8.60;;;5.65;;
53062;SDS011;40529;52.172;10.548;2022-09-12T09:16:43;9.70;;;6.45;;
53062;SDS011;40529;52.172;10.548;2022-09-12T09:19:15;11.48;;;6.65;;
53062;SDS011;40529;52.172;10.548;2022-09-12T09:24:40;8.57;;;6.28;;
53062;SDS011;40529;52.172;10.548;2022-09-12T09:29:46;6.15;;;5.10;;
53062;SDS011;40529;52.172;10.548;2022-09-12T09:32:17;8.27;;;5.72;;
53062;SDS011;40529;52.172;10.548;2022-09-12T09:34:44;8.10;;;5.85;;
53062;SDS011;40529;52.172;10.548;2022-09-12T09:44:53;5.43;;;4.43;;
53062;SDS011;40529;52.172;10.548;2022-09-12T09:47:21;6.03;;;4.30;;
53062;SDS011;40529;52.172;10.548;2022-09-12T09:49:47;10.02;;;4.38;;
53062;SDS011;40529;52.172;10.548;2022-09-12T09:52:16;5.10;;;3.83;;
53062;SDS011;40529;52.172;10.548;2022-09-12T09:59:58;5.13;;;3.75;;
53062;SDS011;40529;52.172;10.548;2022-09-12T10:02:24;5.00;;;3.47;;
53062;SDS011;40529;52.172;10.548;2022-09-12T10:04:55;5.45;;;3.30;;
53062;SDS011;40529;52.172;10.548;2022-09-12T10:07:22;6.78;;;3.38;;
53062;SDS011;40529;52.172;10.548;2022-09-12T10:12:48;7.47;;;3.80;;
53062;SDS011;40529;52.172;10.548;2022-09-12T10:15:21;5.60;;;4.03;;
53062;SDS011;40529;52.172;10.548;2022-09-12T10:17:48;4.63;;;3.88;;
53062;SDS011;40529;52.172;10.548;2022-09-12T10:23:01;4.65;;;3.47;;
53062;SDS011;40529;52.172;10.548;2022-09-12T10:25:27;4.18;;;3.20;;
53062;SDS011;40529;52.172;10.548;2022-09-12T10:27:55;3.20;;;2.83;;
53062;SDS011;40529;52.172;10.548;2022-09-12T10:30:21;3.65;;;2.65;;
53062;SDS011;40529;52.172;10.548;2022-09-12T10:32:53;4.13;;;2.65;;
53062;SDS011;40529;52.172;10.548;2022-09-12T10:37:57;2.92;;;2.35;;
53062;SDS011;40529;52.172;10.548;2022-09-12T10:40:26;3.63;;;2.72;;
53062;SDS011;40529;52.172;10.548;2022-09-12T10:42:54;4.03;;;2.70;;
53062;SDS011;40529;52.172;10.548;2022-09-12T10:47:54;3.40;;;2.67;;
53062;SDS011;40529;52.172;10.548;2022-09-12T10:50:26;4.30;;;2.65;;
53062;SDS011;40529;52.172;10.548;2022-09-12T10:52:53;3.92;;;2.97;;
53062;SDS011;40529;52.172;10.548;2022-09-12T10:55:27;4.28;;;2.53;;
53062;SDS011;40529;52.172;10.548;2022-09-12T10:58:20;3.50;;;2.20;;
53062;SDS011;40529;52.172;10.548;2022-09-12T11:00:43;2.08;;;1.88;;
53062;SDS011;40529;52.172;10.548;2022-09-12T11:18:23;3.17;;;2.50;;
53062;SDS011;40529;52.172;10.548;2022-09-12T11:23:35;4.22;;;2.63;;
53062;SDS011;40529;52.172;10.548;2022-09-12T11:26:16;3.47;;;2.50;;
53062;SDS011;40529;52.172;10.548;2022-09-12T11:34:12;2.58;;;2.10;;
53062;SDS011;40529;52.172;10.548;2022-09-12T11:36:46;4.55;;;2.45;;
53062;SDS011;40529;52.172;10.548;2022-09-12T11:39:58;12.50;;;2.50;;
53062;SDS011;40529;52.172;10.548;2022-09-12T11:42:06;5.00;;;2.20;;
53062;SDS011;40529;52.172;10.548;2022-09-12T11:44:35;13.95;;;2.75;;
53062;SDS011;40529;52.172;10.548;2022-09-12T11:47:04;3.92;;;2.60;;
53062;SDS011;40529;52.172;10.548;2022-09-12T11:49:50;3.20;;;1.92;;
53062;SDS011;40529;52.172;10.548;2022-09-12T11:52:19;3.42;;;1.88;;
53062;SDS011;40529;52.172;10.548;2022-09-12T11:55:04;2.00;;;1.80;;
53062;SDS011;40529;52.172;10.548;2022-09-12T11:57:33;2.25;;;2.05;;
53062;SDS011;40529;52.172;10.548;2022-09-12T12:00:08;2.80;;;1.80;;
53062;SDS011;40529;52.172;10.548;2022-09-12T12:02:47;5.88;;;2.10;;
53062;SDS011;40529;52.172;10.548;2022-09-12T12:05:29;3.40;;;1.95;;
53062;SDS011;40529;52.172;10.548;2022-09-12T12:07:57;2.15;;;1.92;;
53062;SDS011;40529;52.172;10.548;2022-09-12T12:10:44;4.13;;;1.70;;
53062;SDS011;40529;52.172;10.548;2022-09-12T12:13:30;3.15;;;1.77;;
53062;SDS011;40529;52.172;10.548;2022-09-12T12:16:05;2.80;;;2.00;;
53062;SDS011;40529;52.172;10.548;2022-09-12T12:18:32;3.40;;;1.83;;
53062;SDS011;40529;52.172;10.548;2022-09-12T12:21:17;3.10;;;2.10;;
53062;SDS011;40529;52.172;10.548;2022-09-12T12:29:34;1.90;;;1.50;;
53062;SDS011;40529;52.172;10.548;2022-09-12T12:36:57;1.58;;;1.48;;
53062;SDS011;40529;52.172;10.548;2022-09-12T12:42:00;2.60;;;1.55;;
53062;SDS011;40529;52.172;10.548;2022-09-12T12:49:47;1.33;;;1.20;;
53062;SDS011;40529;52.172;10.548;2022-09-12T12:52:15;1.67;;;1.40;;
53062;SDS011;40529;52.172;10.548;2022-09-12T12:59:44;1.60;;;1.40;;
53062;SDS011;40529;52.172;10.548;2022-09-12T13:02:18;2.42;;;1.30;;
53062;SDS011;40529;52.172;10.548;2022-09-12T13:04:45;2.80;;;1.67;;
53062;SDS011;40529;52.172;10.548;2022-09-12T13:07:19;1.63;;;1.23;;
53062;SDS011;40529;52.172;10.548;2022-09-12T13:09:47;59.38;;;4.80;;
53062;SDS011;40529;52.172;10.548;2022-09-12T13:12:18;9.65;;;1.40;;
53062;SDS011;40529;52.172;10.548;2022-09-12T13:19:40;2.72;;;1.38;;
53062;SDS011;40529;52.172;10.548;2022-09-12T13:22:07;2.20;;;1.30;;
53062;SDS011;40529;52.172;10.548;2022-09-12T13:24:44;1.73;;;1.30;;
53062;SDS011;40529;52.172;10.548;2022-09-12T13:27:25;0.95;;;0.88;;
53062;SDS011;40529;52.172;10.548;2022-09-12T13:30:07;2.35;;;0.90;;
53062;SDS011;40529;52.172;10.548;2022-09-12T13:32:33;1.73;;;1.08;;
53062;SDS011;40529;52.172;10.548;2022-09-12T13:40:13;1.17;;;0.80;;
53062;SDS011;40529;52.172;10.548;2022-09-12T13:48:00;2.40;;;1.17;;
53062;SDS011;40529;52.172;10.548;2022-09-12T13:53:06;1.48;;;1.05;;
53062;SDS011;40529;52.172;10.548;2022-09-12T13:55:36;2.85;;;1.38;;
53062;SDS011;40529;52.172;10.548;2022-09-12T13:58:04;1.25;;;1.00;;
53062;SDS011;40529;52.172;10.548;2022-09-12T14:00:31;1.10;;;0.85;;
53062;SDS011;40529;52.172;10.548;2022-09-12T14:02:59;1.70;;;1.20;;
53062;SDS011;40529;52.172;10.548;2022-09-12T14:05:45;1.63;;;1.10;;
53062;SDS011;40529;52.172;10.548;2022-09-12T14:08:12;1.58;;;1.08;;
53062;SDS011;40529;52.172;10.548;2022-09-12T14:10:40;1.20;;;0.88;;
53062;SDS011;40529;52.172;10.548;2022-09-12T14:15:43;2.22;;;1.00;;
53062;SDS011;40529;52.172;10.548;2022-09-12T14:18:19;1.42;;;0.88;;
53062;SDS011;40529;52.172;10.548;2022-09-12T14:20:47;1.10;;;0.95;;
53062;SDS011;40529;52.172;10.548;2022-09-12T14:23:27;1.90;;;1.10;;
53062;SDS011;40529;52.172;10.548;2022-09-12T14:25:54;1.60;;;1.23;;
53062;SDS011;40529;52.172;10.548;2022-09-12T14:28:20;2.38;;;1.30;;
53062;SDS011;40529;52.172;10.548;2022-09-12T14:30:57;2.15;;;1.17;;
53062;SDS011;40529;52.172;10.548;2022-09-12T14:33:23;1.60;;;0.98;;
53062;SDS011;40529;52.172;10.548;2022-09-12T14:35:50;2.75;;;1.00;;
53062;SDS011;40529;52.172;10.548;2022-09-12T14:38:24;1.35;;;1.10;;
53062;SDS011;40529;52.172;10.548;2022-09-12T14:41:00;1.77;;;1.13;;
53062;SDS011;40529;52.172;10.548;2022-09-12T14:43:28;1.42;;;1.10;;
53062;SDS011;40529;52.172;10.548;2022-09-12T14:45:58;1.05;;;0.80;;
53062;SDS011;40529;52.172;10.548;2022-09-12T14:48:26;2.70;;;1.02;;
53062;SDS011;40529;52.172;10.548;2022-09-12T14:50:53;1.67;;;1.00;;
53062;SDS011;40529;52.172;10.548;2022-09-12T14:53:32;1.80;;;1.30;;
53062;SDS011;40529;52.172;10.548;2022-09-12T14:56:10;1.42;;;1.20;;
53062;SDS011;40529;52.172;10.548;2022-09-12T14:58:37;1.67;;;1.10;;
53062;SDS011;40529;52.172;10.548;2022-09-12T15:03:34;2.38;;;0.93;;
53062;SDS011;40529;52.172;10.548;2022-09-12T15:06:01;2.85;;;1.02;;
53062;SDS011;40529;52.172;10.548;2022-09-12T15:08:28;1.48;;;1.10;;
53062;SDS011;40529;52.172;10.548;2022-09-12T15:10:54;1.15;;;1.02;;
53062;SDS011;40529;52.172;10.548;2022-09-12T15:13:22;2.58;;;1.10;;
53062;SDS011;40529;52.172;10.548;2022-09-12T15:15:58;1.70;;;1.20;;
53062;SDS011;40529;52.172;10.548;2022-09-12T15:18:25;1.90;;;1.15;;
53062;SDS011;40529;52.172;10.548;2022-09-12T15:20:53;2.70;;;1.27;;
53062;SDS011;40529;52.172;10.548;2022-09-12T15:26:04;1.80;;;1.38;;
53062;SDS011;40529;52.172;10.548;2022-09-12T15:28:30;1.58;;;1.23;;
53062;SDS011;40529;52.172;10.548;2022-09-12T15:30:56;2.67;;;1.25;;
53062;SDS011;40529;52.172;10.548;2022-09-12T15:33:24;1.65;;;1.20;;
53062;SDS011;40529;52.172;10.548;2022-09-12T15:35:51;1.30;;;1.02;;
53062;SDS011;40529;52.172;10.548;2022-09-12T15:38:17;1.83;;;1.00;;
53062;SDS011;40529;52.172;10.548;2022-09-12T15:40:43;1.50;;;1.00;;
53062;SDS011;40529;52.172;10.548;2022-09-12T15:43:13;1.60;;;0.95;;
53062;SDS011;40529;52.172;10.548;2022-09-12T15:45:42;1.17;;;0.98;;
53062;SDS011;40529;52.172;10.548;2022-09-12T15:48:09;2.15;;;1.08;;
53062;SDS011;40529;52.172;10.548;2022-09-12T15:50:35;1.52;;;1.25;;
53062;SDS011;40529;52.172;10.548;2022-09-12T15:53:01;4.68;;;1.38;;
53062;SDS011;40529;52.172;10.548;2022-09-12T15:55:28;1.25;;;1.08;;
53062;SDS011;40529;52.172;10.548;2022-09-12T15:57:56;2.30;;;1.10;;
53062;SDS011;40529;52.172;10.548;2022-09-12T16:00:22;4.38;;;1.30;;
53062;SDS011;40529;52.172;10.548;2022-09-12T16:02:48;4.88;;;2.03;;
53062;SDS011;40529;52.172;10.548;2022-09-12T16:05:22;1.67;;;1.50;;
53062;SDS011;40529;52.172;10.548;2022-09-12T16:07:52;1.65;;;1.30;;
53062;SDS011;40529;52.172;10.548;2022-09-12T16:10:20;1.13;;;1.00;;
53062;SDS011;40529;52.172;10.548;2022-09-12T16:12:47;1.67;;;1.25;;
53062;SDS011;40529;52.172;10.548;2022-09-12T16:15:14;1.85;;;1.20;;
53062;SDS011;40529;52.172;10.548;2022-09-12T16:17:41;2.22;;;1.20;;
53062;SDS011;40529;52.172;10.548;2022-09-12T16:20:07;2.85;;;1.02;;
53062;SDS011;40529;52.172;10.548;2022-09-12T16:22:33;1.40;;;1.30;;
53062;SDS011;40529;52.172;10.548;2022-09-12T16:24:59;1.98;;;1.33;;
53062;SDS011;40529;52.172;10.548;2022-09-12T16:27:25;1.75;;;1.63;;
53062;SDS011;40529;52.172;10.548;2022-09-12T16:29:51;2.08;;;1.40;;
53062;SDS011;40529;52.172;10.548;2022-09-12T16:32:17;2.63;;;1.35;;
53062;SDS011;40529;52.172;10.548;2022-09-12T16:34:43;1.88;;;1.40;;
53062;SDS011;40529;52.172;10.548;2022-09-12T16:37:09;1.42;;;1.33;;
53062;SDS011;40529;52.172;10.548;2022-09-12T16:39:36;1.48;;;1.38;;
53062;SDS011;40529;52.172;10.548;2022-09-12T16:42:02;3.17;;;1.58;;
53062;SDS011;40529;52.172;10.548;2022-09-12T16:44:28;1.50;;;1.40;;
53062;SDS011;40529;52.172;10.548;2022-09-12T16:46:54;1.30;;;1.02;;
53062;SDS011;40529;52.172;10.548;2022-09-12T16:49:20;2.38;;;1.50;;
53062;SDS011;40529;52.172;10.548;2022-09-12T16:51:46;1.75;;;1.42;;
53062;SDS011;40529;52.172;10.548;2022-09-12T16:54:13;1.92;;;1.38;;
53062;SDS011;40529;52.172;10.548;2022-09-12T16:56:39;2.45;;;1.60;;
53062;SDS011;40529;52.172;10.548;2022-09-12T16:59:06;4.50;;;1.20;;
53062;SDS011;40529;52.172;10.548;2022-09-12T17:01:33;2.42;;;1.23;;
53062;SDS011;40529;52.172;10.548;2022-09-12T17:03:59;1.33;;;1.23;;
53062;SDS011;40529;52.172;10.548;2022-09-12T17:06:26;3.13;;;1.83;;
53062;SDS011;40529;52.172;10.548;2022-09-12T17:08:53;2.53;;;1.40;;
53062;SDS011;40529;52.172;10.548;2022-09-12T17:13:49;4.35;;;1.23;;